sensor_id;sensor_type;location;lat;lon;timestamp;noise_LAeq;noise_LA_min;noise_LA_max;noise_LA01;noise_LA95
37162;Laerm;68342;52.598;13.450;2023-11-19T00:00:39;38.87;34.54;52.57;;
37162;Laerm;68342;52.598;13.450;2023-11-19T00:03:04;38.85;34.00;56.42;;
37162;Laerm;68342;52.598;13.450;2023-11-19T00:05:30;39.00;34.39;51.60;;
37162;Laerm;68342;52.598;13.450;2023-11-19T00:07:56;40.48;36.58;51.90;;
37162;Laerm;68342;52.598;13.450;2023-11-19T00:10:21;40.27;35.99;55.76;;
37162;Laerm;68342;52.598;13.450;2023-11-19T00:12:47;39.77;35.67;53.49;;
37162;Laerm;68342;52.598;13.450;2023-11-19T00:15:13;40.27;36.10;55.89;;
37162;Laerm;68342;52.598;13.450;2023-11-19T00:17:42;39.25;34.97;56.97;;
37162;Laerm;68342;52.598;13.450;2023-11-19T00:20:13;38.45;33.48;54.50;;
37162;Laerm;68342;52.598;13.450;2023-11-19T00:22:39;38.96;33.97;55.36;;
37162;Laerm;68342;52.598;13.450;2023-11-19T00:25:05;42.62;34.55;55.42;;
37162;Laerm;68342;52.598;13.450;2023-11-19T00:27:30;38.33;33.92;50.72;;
37162;Laerm;68342;52.598;13.450;2023-11-19T00:29:56;37.94;33.31;53.57;;
37162;Laerm;68342;52.598;13.450;2023-11-19T00:32:21;38.57;33.66;51.94;;
37162;Laerm;68342;52.598;13.450;2023-11-19T00:34:47;38.12;32.67;52.22;;
37162;Laerm;68342;52.598;13.450;2023-11-19T00:37:13;38.07;33.20;52.30;;
37162;Laerm;68342;52.598;13.450;2023-11-19T00:39:38;37.83;32.77;52.51;;
37162;Laerm;68342;52.598;13.450;2023-11-19T00:42:03;38.95;33.84;55.74;;
37162;Laerm;68342;52.598;13.450;2023-11-19T00:44:28;38.96;32.46;52.52;;
37162;Laerm;68342;52.598;13.450;2023-11-19T00:46:54;38.36;32.71;57.31;;
37162;Laerm;68342;52.598;13.450;2023-11-19T00:49:19;37.94;32.74;53.81;;
37162;Laerm;68342;52.598;13.450;2023-11-19T00:51:44;38.24;33.43;57.41;;
37162;Laerm;68342;52.598;13.450;2023-11-19T00:54:10;38.41;34.15;52.16;;
37162;Laerm;68342;52.598;13.450;2023-11-19T00:56:36;38.15;34.00;51.00;;
37162;Laerm;68342;52.598;13.450;2023-11-19T00:59:02;37.79;33.44;56.12;;
37162;Laerm;68342;52.598;13.450;2023-11-19T01:01:27;37.43;32.20;53.12;;
37162;Laerm;68342;52.598;13.450;2023-11-19T01:03:53;37.89;33.74;52.29;;
37162;Laerm;68342;52.598;13.450;2023-11-19T01:06:27;40.14;34.89;58.57;;
37162;Laerm;68342;52.598;13.450;2023-11-19T01:08:53;43.18;33.42;57.70;;
37162;Laerm;68342;52.598;13.450;2023-11-19T01:11:22;37.90;33.14;52.44;;
37162;Laerm;68342;52.598;13.450;2023-11-19T01:13:48;38.35;33.26;51.66;;
37162;Laerm;68342;52.598;13.450;2023-11-19T01:16:13;40.43;34.13;50.99;;
37162;Laerm;68342;52.598;13.450;2023-11-19T01:18:39;39.28;34.79;52.40;;
37162;Laerm;68342;52.598;13.450;2023-11-19T01:21:04;38.54;33.63;54.83;;
37162;Laerm;68342;52.598;13.450;2023-11-19T01:23:29;40.05;35.33;53.19;;
37162;Laerm;68342;52.598;13.450;2023-11-19T01:25:55;39.34;34.76;53.90;;
37162;Laerm;68342;52.598;13.450;2023-11-19T01:28:20;38.97;34.14;53.26;;
37162;Laerm;68342;52.598;13.450;2023-11-19T01:30:45;38.87;34.67;54.11;;
37162;Laerm;68342;52.598;13.450;2023-11-19T01:33:10;38.25;33.81;51.72;;
37162;Laerm;68342;52.598;13.450;2023-11-19T01:35:36;38.50;33.81;56.60;;
37162;Laerm;68342;52.598;13.450;2023-11-19T01:38:01;39.19;34.18;54.28;;
37162;Laerm;68342;52.598;13.450;2023-11-19T01:40:26;37.97;33.98;55.93;;
37162;Laerm;68342;52.598;13.450;2023-11-19T01:42:51;38.65;34.17;55.34;;
37162;Laerm;68342;52.598;13.450;2023-11-19T01:45:22;38.21;33.37;56.40;;
37162;Laerm;68342;52.598;13.450;2023-11-19T01:47:52;38.35;32.90;52.98;;
37162;Laerm;68342;52.598;13.450;2023-11-19T01:50:17;37.93;33.16;56.23;;
37162;Laerm;68342;52.598;13.450;2023-11-19T01:52:42;39.53;32.20;51.14;;
37162;Laerm;68342;52.598;13.450;2023-11-19T01:55:08;38.00;32.74;50.76;;
37162;Laerm;68342;52.598;13.450;2023-11-19T01:57:34;38.75;33.94;50.74;;
37162;Laerm;68342;52.598;13.450;2023-11-19T02:00:02;37.80;32.97;56.11;;
37162;Laerm;68342;52.598;13.450;2023-11-19T02:02:28;40.05;33.94;52.06;;
37162;Laerm;68342;52.598;13.450;2023-11-19T02:04:54;37.92;32.54;54.30;;
37162;Laerm;68342;52.598;13.450;2023-11-19T02:07:19;37.40;32.29;52.32;;
37162;Laerm;68342;52.598;13.450;2023-11-19T02:09:45;42.18;34.71;60.18;;
37162;Laerm;68342;52.598;13.450;2023-11-19T02:12:10;43.87;38.05;54.17;;
37162;Laerm;68342;52.598;13.450;2023-11-19T02:14:39;42.21;35.11;68.32;;
37162;Laerm;68342;52.598;13.450;2023-11-19T02:17:04;38.48;33.10;54.43;;
37162;Laerm;68342;52.598;13.450;2023-11-19T02:19:29;39.51;34.15;54.93;;
37162;Laerm;68342;52.598;13.450;2023-11-19T02:21:55;38.13;33.13;56.96;;
37162;Laerm;68342;52.598;13.450;2023-11-19T02:24:21;39.76;33.30;52.09;;
37162;Laerm;68342;52.598;13.450;2023-11-19T02:26:49;40.42;33.82;53.20;;
37162;Laerm;68342;52.598;13.450;2023-11-19T02:29:17;40.65;33.57;55.17;;
37162;Laerm;68342;52.598;13.450;2023-11-19T02:31:42;38.29;33.08;50.34;;
37162;Laerm;68342;52.598;13.450;2023-11-19T02:34:09;37.35;32.09;52.52;;
37162;Laerm;68342;52.598;13.450;2023-11-19T02:36:35;39.18;32.45;51.62;;
37162;Laerm;68342;52.598;13.450;2023-11-19T02:39:01;39.02;32.82;52.22;;
37162;Laerm;68342;52.598;13.450;2023-11-19T02:41:27;38.67;33.40;56.20;;
37162;Laerm;68342;52.598;13.450;2023-11-19T02:43:52;37.80;32.13;52.53;;
37162;Laerm;68342;52.598;13.450;2023-11-19T02:46:18;37.92;32.57;49.67;;
37162;Laerm;68342;52.598;13.450;2023-11-19T02:48:44;38.84;33.21;56.91;;
37162;Laerm;68342;52.598;13.450;2023-11-19T02:51:11;39.11;33.89;51.05;;
37162;Laerm;68342;52.598;13.450;2023-11-19T02:53:36;39.38;32.92;53.50;;
37162;Laerm;68342;52.598;13.450;2023-11-19T02:56:04;37.47;32.55;52.79;;
37162;Laerm;68342;52.598;13.450;2023-11-19T02:58:50;40.06;32.53;52.62;;
37162;Laerm;68342;52.598;13.450;2023-11-19T03:01:21;38.72;33.49;53.16;;
37162;Laerm;68342;52.598;13.450;2023-11-19T03:03:49;38.44;33.25;52.14;;
37162;Laerm;68342;52.598;13.450;2023-11-19T03:06:19;39.61;34.24;52.76;;
37162;Laerm;68342;52.598;13.450;2023-11-19T03:08:45;37.89;32.64;51.51;;
37162;Laerm;68342;52.598;13.450;2023-11-19T03:11:10;38.55;33.59;54.14;;
37162;Laerm;68342;52.598;13.450;2023-11-19T03:13:35;39.48;32.27;52.19;;
37162;Laerm;68342;52.598;13.450;2023-11-19T03:16:00;38.52;32.11;50.71;;
37162;Laerm;68342;52.598;13.450;2023-11-19T03:18:26;38.59;33.16;55.75;;
37162;Laerm;68342;52.598;13.450;2023-11-19T03:20:53;37.51;32.72;50.24;;
37162;Laerm;68342;52.598;13.450;2023-11-19T03:23:18;39.60;32.92;55.91;;
37162;Laerm;68342;52.598;13.450;2023-11-19T03:25:44;38.70;33.00;52.78;;
37162;Laerm;68342;52.598;13.450;2023-11-19T03:28:09;41.36;36.40;58.17;;
37162;Laerm;68342;52.598;13.450;2023-11-19T03:30:36;41.22;35.55;52.22;;
37162;Laerm;68342;52.598;13.450;2023-11-19T03:33:01;40.93;36.23;52.53;;
37162;Laerm;68342;52.598;13.450;2023-11-19T03:35:27;39.84;34.79;51.49;;
37162;Laerm;68342;52.598;13.450;2023-11-19T03:37:53;48.50;38.82;61.82;;
37162;Laerm;68342;52.598;13.450;2023-11-19T03:40:18;45.78;42.15;56.91;;
37162;Laerm;68342;52.598;13.450;2023-11-19T03:42:46;44.39;39.68;54.13;;
37162;Laerm;68342;52.598;13.450;2023-11-19T03:45:12;46.06;41.10;57.64;;
37162;Laerm;68342;52.598;13.450;2023-11-19T03:47:37;48.96;44.72;59.20;;
37162;Laerm;68342;52.598;13.450;2023-11-19T03:50:03;48.24;44.23;62.33;;
37162;Laerm;68342;52.598;13.450;2023-11-19T03:52:29;48.03;44.26;62.12;;
37162;Laerm;68342;52.598;13.450;2023-11-19T03:54:54;52.04;47.44;65.75;;
37162;Laerm;68342;52.598;13.450;2023-11-19T03:57:20;50.17;45.73;62.31;;
37162;Laerm;68342;52.598;13.450;2023-11-19T03:59:46;46.87;43.80;58.42;;
37162;Laerm;68342;52.598;13.450;2023-11-19T04:02:11;49.87;46.06;60.89;;
37162;Laerm;68342;52.598;13.450;2023-11-19T04:04:37;51.26;47.19;64.02;;
37162;Laerm;68342;52.598;13.450;2023-11-19T04:07:04;51.21;47.71;64.68;;
37162;Laerm;68342;52.598;13.450;2023-11-19T04:09:29;53.01;50.00;66.05;;
37162;Laerm;68342;52.598;13.450;2023-11-19T04:11:55;54.34;48.13;72.84;;
37162;Laerm;68342;52.598;13.450;2023-11-19T04:14:20;51.17;45.82;65.38;;
37162;Laerm;68342;52.598;13.450;2023-11-19T04:16:46;50.96;44.57;63.74;;
37162;Laerm;68342;52.598;13.450;2023-11-19T04:19:11;52.83;48.91;64.58;;
37162;Laerm;68342;52.598;13.450;2023-11-19T04:21:37;52.28;48.65;61.94;;
37162;Laerm;68342;52.598;13.450;2023-11-19T04:24:02;53.44;49.00;67.32;;
37162;Laerm;68342;52.598;13.450;2023-11-19T04:26:27;51.71;45.65;64.87;;
37162;Laerm;68342;52.598;13.450;2023-11-19T04:28:53;44.93;40.45;52.43;;
37162;Laerm;68342;52.598;13.450;2023-11-19T04:31:18;43.48;38.27;54.33;;
37162;Laerm;68342;52.598;13.450;2023-11-19T04:33:43;41.79;38.00;54.42;;
37162;Laerm;68342;52.598;13.450;2023-11-19T04:36:09;43.34;37.16;54.52;;
37162;Laerm;68342;52.598;13.450;2023-11-19T04:38:34;43.61;39.35;59.19;;
37162;Laerm;68342;52.598;13.450;2023-11-19T04:40:59;43.92;39.77;56.70;;
37162;Laerm;68342;52.598;13.450;2023-11-19T04:43:25;46.35;41.40;57.67;;
37162;Laerm;68342;52.598;13.450;2023-11-19T04:45:50;54.64;48.61;67.71;;
37162;Laerm;68342;52.598;13.450;2023-11-19T04:48:16;52.43;48.89;64.22;;
37162;Laerm;68342;52.598;13.450;2023-11-19T04:50:41;56.65;52.60;65.99;;
37162;Laerm;68342;52.598;13.450;2023-11-19T04:53:06;55.34;50.46;65.61;;
37162;Laerm;68342;52.598;13.450;2023-11-19T04:55:32;54.26;50.32;67.06;;
37162;Laerm;68342;52.598;13.450;2023-11-19T04:57:57;57.21;53.81;66.82;;
37162;Laerm;68342;52.598;13.450;2023-11-19T05:00:22;57.27;53.93;72.20;;
37162;Laerm;68342;52.598;13.450;2023-11-19T05:02:48;57.74;54.70;67.59;;
37162;Laerm;68342;52.598;13.450;2023-11-19T05:05:15;58.09;55.46;66.66;;
37162;Laerm;68342;52.598;13.450;2023-11-19T05:07:40;57.55;53.55;66.51;;
37162;Laerm;68342;52.598;13.450;2023-11-19T05:10:05;54.70;51.15;63.83;;
37162;Laerm;68342;52.598;13.450;2023-11-19T05:12:31;49.76;44.60;61.70;;
37162;Laerm;68342;52.598;13.450;2023-11-19T05:14:56;50.18;46.71;61.99;;
37162;Laerm;68342;52.598;13.450;2023-11-19T05:17:22;53.36;49.51;65.37;;
37162;Laerm;68342;52.598;13.450;2023-11-19T05:19:47;55.01;51.31;65.64;;
37162;Laerm;68342;52.598;13.450;2023-11-19T05:22:13;53.86;50.43;65.98;;
37162;Laerm;68342;52.598;13.450;2023-11-19T05:24:38;54.62;51.82;66.99;;
37162;Laerm;68342;52.598;13.450;2023-11-19T05:27:04;55.02;51.59;64.71;;
37162;Laerm;68342;52.598;13.450;2023-11-19T05:29:30;51.73;47.19;63.86;;
37162;Laerm;68342;52.598;13.450;2023-11-19T05:31:55;50.78;47.00;60.89;;
37162;Laerm;68342;52.598;13.450;2023-11-19T05:34:21;53.63;49.30;68.02;;
37162;Laerm;68342;52.598;13.450;2023-11-19T05:36:46;55.09;51.28;67.99;;
37162;Laerm;68342;52.598;13.450;2023-11-19T05:39:11;56.88;53.61;65.98;;
37162;Laerm;68342;52.598;13.450;2023-11-19T05:41:37;57.06;53.69;67.91;;
37162;Laerm;68342;52.598;13.450;2023-11-19T05:44:02;54.27;50.77;63.96;;
37162;Laerm;68342;52.598;13.450;2023-11-19T05:46:27;52.04;48.94;65.17;;
37162;Laerm;68342;52.598;13.450;2023-11-19T05:48:53;51.81;48.62;61.54;;
37162;Laerm;68342;52.598;13.450;2023-11-19T05:51:18;52.20;49.00;61.57;;
37162;Laerm;68342;52.598;13.450;2023-11-19T05:53:43;53.82;50.76;59.45;;
37162;Laerm;68342;52.598;13.450;2023-11-19T05:56:10;52.27;49.78;60.16;;
37162;Laerm;68342;52.598;13.450;2023-11-19T05:58:35;51.49;47.81;59.00;;
37162;Laerm;68342;52.598;13.450;2023-11-19T06:01:01;50.61;47.80;62.66;;
37162;Laerm;68342;52.598;13.450;2023-11-19T06:03:27;54.70;51.16;63.14;;
37162;Laerm;68342;52.598;13.450;2023-11-19T06:05:52;55.28;52.16;64.00;;
37162;Laerm;68342;52.598;13.450;2023-11-19T06:08:19;53.03;49.47;64.92;;
37162;Laerm;68342;52.598;13.450;2023-11-19T06:10:45;52.03;48.71;61.16;;
37162;Laerm;68342;52.598;13.450;2023-11-19T06:13:11;50.59;47.56;65.23;;
37162;Laerm;68342;52.598;13.450;2023-11-19T06:15:37;53.02;50.31;64.89;;
37162;Laerm;68342;52.598;13.450;2023-11-19T06:18:02;53.47;50.75;66.15;;
37162;Laerm;68342;52.598;13.450;2023-11-19T06:20:29;53.78;51.19;67.00;;
37162;Laerm;68342;52.598;13.450;2023-11-19T06:22:56;54.39;51.13;65.58;;
37162;Laerm;68342;52.598;13.450;2023-11-19T06:25:22;53.40;51.23;66.21;;
37162;Laerm;68342;52.598;13.450;2023-11-19T06:27:49;51.77;49.31;60.77;;
37162;Laerm;68342;52.598;13.450;2023-11-19T06:30:14;51.07;45.70;60.01;;
37162;Laerm;68342;52.598;13.450;2023-11-19T06:32:39;50.01;47.24;60.35;;
37162;Laerm;68342;52.598;13.450;2023-11-19T06:35:05;50.50;47.40;62.74;;
37162;Laerm;68342;52.598;13.450;2023-11-19T06:37:30;52.96;48.06;64.59;;
37162;Laerm;68342;52.598;13.450;2023-11-19T06:39:55;52.64;48.93;67.50;;
37162;Laerm;68342;52.598;13.450;2023-11-19T06:42:21;51.16;47.58;64.59;;
37162;Laerm;68342;52.598;13.450;2023-11-19T06:44:46;49.67;46.45;58.80;;
37162;Laerm;68342;52.598;13.450;2023-11-19T06:47:11;50.14;46.73;59.01;;
37162;Laerm;68342;52.598;13.450;2023-11-19T06:49:36;51.51;47.73;64.00;;
37162;Laerm;68342;52.598;13.450;2023-11-19T06:52:02;49.56;45.90;60.90;;
37162;Laerm;68342;52.598;13.450;2023-11-19T06:54:27;53.28;49.13;63.62;;
37162;Laerm;68342;52.598;13.450;2023-11-19T06:56:53;56.53;48.27;69.47;;
37162;Laerm;68342;52.598;13.450;2023-11-19T06:59:18;54.06;46.76;64.71;;
37162;Laerm;68342;52.598;13.450;2023-11-19T07:01:44;52.22;47.30;61.53;;
37162;Laerm;68342;52.598;13.450;2023-11-19T07:04:12;53.41;48.23;67.33;;
37162;Laerm;68342;52.598;13.450;2023-11-19T07:06:40;50.69;46.45;59.71;;
37162;Laerm;68342;52.598;13.450;2023-11-19T07:09:09;53.97;50.40;67.32;;
37162;Laerm;68342;52.598;13.450;2023-11-19T07:11:38;53.09;49.95;64.20;;
37162;Laerm;68342;52.598;13.450;2023-11-19T07:14:04;51.47;47.46;60.47;;
37162;Laerm;68342;52.598;13.450;2023-11-19T07:16:29;50.38;46.24;58.00;;
37162;Laerm;68342;52.598;13.450;2023-11-19T07:18:54;52.89;49.14;62.52;;
37162;Laerm;68342;52.598;13.450;2023-11-19T07:21:20;52.55;49.25;61.95;;
37162;Laerm;68342;52.598;13.450;2023-11-19T07:23:45;51.38;46.87;65.46;;
37162;Laerm;68342;52.598;13.450;2023-11-19T07:26:11;57.70;45.95;66.10;;
37162;Laerm;68342;52.598;13.450;2023-11-19T07:28:37;47.79;42.89;55.15;;
37162;Laerm;68342;52.598;13.450;2023-11-19T07:31:02;47.33;42.12;61.11;;
37162;Laerm;68342;52.598;13.450;2023-11-19T07:33:28;45.91;41.29;61.35;;
37162;Laerm;68342;52.598;13.450;2023-11-19T07:35:54;46.06;41.48;57.66;;
37162;Laerm;68342;52.598;13.450;2023-11-19T07:38:20;47.06;39.53;59.20;;
37162;Laerm;68342;52.598;13.450;2023-11-19T07:40:45;48.00;41.53;58.90;;
37162;Laerm;68342;52.598;13.450;2023-11-19T07:43:10;44.97;39.49;56.45;;
37162;Laerm;68342;52.598;13.450;2023-11-19T07:45:35;43.82;38.80;58.28;;
37162;Laerm;68342;52.598;13.450;2023-11-19T07:48:01;42.94;38.89;52.42;;
37162;Laerm;68342;52.598;13.450;2023-11-19T07:50:26;44.42;38.97;57.16;;
37162;Laerm;68342;52.598;13.450;2023-11-19T07:52:55;44.48;39.64;54.34;;
37162;Laerm;68342;52.598;13.450;2023-11-19T07:55:20;44.70;39.46;54.07;;
37162;Laerm;68342;52.598;13.450;2023-11-19T07:57:46;44.44;39.63;59.07;;
37162;Laerm;68342;52.598;13.450;2023-11-19T08:00:14;44.40;39.82;60.32;;
37162;Laerm;68342;52.598;13.450;2023-11-19T08:02:39;43.84;38.64;53.07;;
37162;Laerm;68342;52.598;13.450;2023-11-19T08:05:04;45.55;38.68;53.94;;
37162;Laerm;68342;52.598;13.450;2023-11-19T08:07:30;44.79;40.99;53.09;;
37162;Laerm;68342;52.598;13.450;2023-11-19T08:09:55;47.21;41.10;60.77;;
37162;Laerm;68342;52.598;13.450;2023-11-19T08:12:20;46.58;38.73;63.32;;
37162;Laerm;68342;52.598;13.450;2023-11-19T08:14:45;44.50;38.78;60.63;;
37162;Laerm;68342;52.598;13.450;2023-11-19T08:17:11;44.14;40.06;54.00;;
37162;Laerm;68342;52.598;13.450;2023-11-19T08:19:36;44.63;39.97;52.20;;
37162;Laerm;68342;52.598;13.450;2023-11-19T08:22:01;47.14;40.31;58.89;;
37162;Laerm;68342;52.598;13.450;2023-11-19T08:24:27;51.02;42.58;60.61;;
37162;Laerm;68342;52.598;13.450;2023-11-19T08:26:53;48.78;40.15;60.73;;
37162;Laerm;68342;52.598;13.450;2023-11-19T08:29:18;44.04;39.49;55.21;;
37162;Laerm;68342;52.598;13.450;2023-11-19T08:31:43;46.79;41.98;57.20;;
37162;Laerm;68342;52.598;13.450;2023-11-19T08:34:09;45.55;40.29;60.88;;
37162;Laerm;68342;52.598;13.450;2023-11-19T08:36:34;46.76;40.43;61.78;;
37162;Laerm;68342;52.598;13.450;2023-11-19T08:39:00;44.14;40.29;52.75;;
37162;Laerm;68342;52.598;13.450;2023-11-19T08:41:25;44.01;39.96;56.88;;
37162;Laerm;68342;52.598;13.450;2023-11-19T08:43:50;44.72;40.21;55.20;;
37162;Laerm;68342;52.598;13.450;2023-11-19T08:46:16;45.18;41.11;55.83;;
37162;Laerm;68342;52.598;13.450;2023-11-19T08:48:42;43.65;39.94;58.20;;
37162;Laerm;68342;52.598;13.450;2023-11-19T08:51:07;45.48;41.28;54.74;;
37162;Laerm;68342;52.598;13.450;2023-11-19T08:53:32;50.10;41.59;59.65;;
37162;Laerm;68342;52.598;13.450;2023-11-19T08:55:58;50.80;44.45;60.62;;
37162;Laerm;68342;52.598;13.450;2023-11-19T08:58:23;49.31;42.13;60.74;;
37162;Laerm;68342;52.598;13.450;2023-11-19T09:00:49;46.59;41.79;57.16;;
37162;Laerm;68342;52.598;13.450;2023-11-19T09:03:14;47.78;41.56;55.83;;
37162;Laerm;68342;52.598;13.450;2023-11-19T09:05:39;46.28;42.44;53.61;;
37162;Laerm;68342;52.598;13.450;2023-11-19T09:08:04;46.32;40.59;57.78;;
37162;Laerm;68342;52.598;13.450;2023-11-19T09:10:30;46.38;41.09;60.85;;
37162;Laerm;68342;52.598;13.450;2023-11-19T09:12:55;54.05;43.85;66.05;;
37162;Laerm;68342;52.598;13.450;2023-11-19T09:15:20;55.32;47.45;62.87;;
37162;Laerm;68342;52.598;13.450;2023-11-19T09:17:45;55.64;48.82;67.14;;
37162;Laerm;68342;52.598;13.450;2023-11-19T09:20:11;55.74;46.97;67.10;;
37162;Laerm;68342;52.598;13.450;2023-11-19T09:22:39;47.99;44.39;57.06;;
37162;Laerm;68342;52.598;13.450;2023-11-19T09:25:05;49.64;43.53;70.19;;
37162;Laerm;68342;52.598;13.450;2023-11-19T09:27:30;49.90;43.86;65.85;;
37162;Laerm;68342;52.598;13.450;2023-11-19T09:29:55;48.49;43.04;64.52;;
37162;Laerm;68342;52.598;13.450;2023-11-19T09:32:23;49.86;43.79;62.65;;
37162;Laerm;68342;52.598;13.450;2023-11-19T09:34:48;50.62;42.48;68.01;;
37162;Laerm;68342;52.598;13.450;2023-11-19T09:37:16;51.08;42.96;68.92;;
37162;Laerm;68342;52.598;13.450;2023-11-19T09:39:42;47.91;42.99;62.34;;
37162;Laerm;68342;52.598;13.450;2023-11-19T09:42:10;51.28;43.43;70.39;;
37162;Laerm;68342;52.598;13.450;2023-11-19T09:44:39;50.78;44.05;72.40;;
37162;Laerm;68342;52.598;13.450;2023-11-19T09:47:05;48.39;43.15;59.92;;
37162;Laerm;68342;52.598;13.450;2023-11-19T09:49:31;48.26;43.74;58.83;;
37162;Laerm;68342;52.598;13.450;2023-11-19T09:51:58;47.84;41.87;61.17;;
37162;Laerm;68342;52.598;13.450;2023-11-19T09:54:23;47.48;43.32;59.59;;
37162;Laerm;68342;52.598;13.450;2023-11-19T09:56:48;46.33;41.81;57.33;;
37162;Laerm;68342;52.598;13.450;2023-11-19T09:59:14;47.92;43.11;57.61;;
37162;Laerm;68342;52.598;13.450;2023-11-19T10:01:40;47.81;44.02;57.94;;
37162;Laerm;68342;52.598;13.450;2023-11-19T10:04:05;46.98;41.67;55.06;;
37162;Laerm;68342;52.598;13.450;2023-11-19T10:06:31;46.80;43.21;56.75;;
37162;Laerm;68342;52.598;13.450;2023-11-19T10:08:56;47.25;42.86;55.10;;
37162;Laerm;68342;52.598;13.450;2023-11-19T10:11:22;45.76;42.12;52.80;;
37162;Laerm;68342;52.598;13.450;2023-11-19T10:13:47;46.43;42.61;54.02;;
37162;Laerm;68342;52.598;13.450;2023-11-19T10:16:13;45.19;41.74;58.90;;
37162;Laerm;68342;52.598;13.450;2023-11-19T10:18:48;46.29;42.08;56.68;;
37162;Laerm;68342;52.598;13.450;2023-11-19T10:21:17;47.53;43.05;58.57;;
37162;Laerm;68342;52.598;13.450;2023-11-19T10:23:50;47.16;43.05;60.42;;
37162;Laerm;68342;52.598;13.450;2023-11-19T10:26:16;47.28;43.41;62.57;;
37162;Laerm;68342;52.598;13.450;2023-11-19T10:28:42;48.48;43.70;54.68;;
37162;Laerm;68342;52.598;13.450;2023-11-19T10:31:09;48.12;43.64;55.22;;
37162;Laerm;68342;52.598;13.450;2023-11-19T10:33:34;46.54;42.19;52.06;;
37162;Laerm;68342;52.598;13.450;2023-11-19T10:36:00;50.58;43.45;64.33;;
37162;Laerm;68342;52.598;13.450;2023-11-19T10:38:25;47.52;43.88;52.64;;
37162;Laerm;68342;52.598;13.450;2023-11-19T10:40:51;48.75;44.73;62.97;;
37162;Laerm;68342;52.598;13.450;2023-11-19T10:43:17;49.17;42.63;62.07;;
37162;Laerm;68342;52.598;13.450;2023-11-19T10:45:42;48.53;44.01;57.07;;
37162;Laerm;68342;52.598;13.450;2023-11-19T10:48:08;48.12;43.00;54.57;;
37162;Laerm;68342;52.598;13.450;2023-11-19T10:50:34;48.50;44.50;56.49;;
37162;Laerm;68342;52.598;13.450;2023-11-19T10:53:00;46.81;42.17;55.13;;
37162;Laerm;68342;52.598;13.450;2023-11-19T10:55:35;49.30;43.05;73.77;;
37162;Laerm;68342;52.598;13.450;2023-11-19T10:58:05;49.80;43.82;65.02;;
37162;Laerm;68342;52.598;13.450;2023-11-19T11:00:34;49.17;43.01;60.64;;
37162;Laerm;68342;52.598;13.450;2023-11-19T11:03:02;48.22;42.90;61.15;;
37162;Laerm;68342;52.598;13.450;2023-11-19T11:05:33;47.20;42.20;57.70;;
37162;Laerm;68342;52.598;13.450;2023-11-19T11:08:00;48.08;43.45;57.24;;
37162;Laerm;68342;52.598;13.450;2023-11-19T11:10:25;46.78;42.64;57.28;;
37162;Laerm;68342;52.598;13.450;2023-11-19T11:12:51;47.10;42.89;57.28;;
37162;Laerm;68342;52.598;13.450;2023-11-19T11:15:21;46.90;43.61;60.48;;
37162;Laerm;68342;52.598;13.450;2023-11-19T11:17:46;48.76;43.86;56.70;;
37162;Laerm;68342;52.598;13.450;2023-11-19T11:20:12;47.90;43.19;56.24;;
37162;Laerm;68342;52.598;13.450;2023-11-19T11:31:31;49.15;45.52;65.52;;
37162;Laerm;68342;52.598;13.450;2023-11-19T11:34:09;49.07;42.48;58.13;;
37162;Laerm;68342;52.598;13.450;2023-11-19T11:36:19;48.66;44.39;56.46;;
37162;Laerm;68342;52.598;13.450;2023-11-19T11:38:45;49.50;43.17;56.36;;
37162;Laerm;68342;52.598;13.450;2023-11-19T11:43:48;48.56;44.04;54.65;;
37162;Laerm;68342;52.598;13.450;2023-11-19T11:47:00;48.88;45.74;55.55;;
37162;Laerm;68342;52.598;13.450;2023-11-19T11:54:10;48.81;45.45;56.51;;
37162;Laerm;68342;52.598;13.450;2023-11-19T11:56:38;48.86;42.84;57.82;;
37162;Laerm;68342;52.598;13.450;2023-11-19T11:59:23;49.08;46.09;59.33;;
37162;Laerm;68342;52.598;13.450;2023-11-19T12:01:58;50.07;44.73;56.61;;
37162;Laerm;68342;52.598;13.450;2023-11-19T12:04:25;48.90;43.56;55.99;;
37162;Laerm;68342;52.598;13.450;2023-11-19T12:07:06;49.49;45.71;61.99;;
37162;Laerm;68342;52.598;13.450;2023-11-19T12:09:32;48.43;44.29;55.83;;
37162;Laerm;68342;52.598;13.450;2023-11-19T12:15:00;49.39;44.29;57.13;;
37162;Laerm;68342;52.598;13.450;2023-11-19T12:20:00;49.35;44.73;56.18;;
37162;Laerm;68342;52.598;13.450;2023-11-19T12:22:26;48.23;44.61;55.87;;
37162;Laerm;68342;52.598;13.450;2023-11-19T12:24:53;48.57;45.16;61.41;;
37162;Laerm;68342;52.598;13.450;2023-11-19T12:27:19;49.42;45.11;61.64;;
37162;Laerm;68342;52.598;13.450;2023-11-19T12:29:47;50.35;45.10;60.93;;
37162;Laerm;68342;52.598;13.450;2023-11-19T12:32:12;49.33;45.89;58.77;;
37162;Laerm;68342;52.598;13.450;2023-11-19T12:34:38;49.40;45.41;60.29;;
37162;Laerm;68342;52.598;13.450;2023-11-19T12:37:03;50.24;46.00;57.97;;
37162;Laerm;68342;52.598;13.450;2023-11-19T12:39:29;48.12;44.42;58.70;;
37162;Laerm;68342;52.598;13.450;2023-11-19T12:41:55;48.57;44.29;57.23;;
37162;Laerm;68342;52.598;13.450;2023-11-19T12:44:20;49.64;45.01;65.24;;
37162;Laerm;68342;52.598;13.450;2023-11-19T12:46:46;51.13;45.29;65.45;;
37162;Laerm;68342;52.598;13.450;2023-11-19T12:49:11;49.38;44.50;70.53;;
37162;Laerm;68342;52.598;13.450;2023-11-19T12:51:36;49.50;45.82;68.96;;
37162;Laerm;68342;52.598;13.450;2023-11-19T12:54:02;49.03;43.87;58.84;;
37162;Laerm;68342;52.598;13.450;2023-11-19T12:56:27;50.20;45.17;57.98;;
37162;Laerm;68342;52.598;13.450;2023-11-19T12:58:52;49.24;44.18;63.93;;
37162;Laerm;68342;52.598;13.450;2023-11-19T13:01:18;49.20;44.99;57.60;;
37162;Laerm;68342;52.598;13.450;2023-11-19T13:03:44;48.12;44.85;62.30;;
37162;Laerm;68342;52.598;13.450;2023-11-19T13:06:10;48.27;44.43;58.54;;
37162;Laerm;68342;52.598;13.450;2023-11-19T13:08:45;47.69;42.62;52.84;;
37162;Laerm;68342;52.598;13.450;2023-11-19T13:11:13;47.43;42.36;64.33;;
37162;Laerm;68342;52.598;13.450;2023-11-19T13:16:22;48.37;43.88;56.09;;
37162;Laerm;68342;52.598;13.450;2023-11-19T13:18:48;47.12;43.15;55.31;;
37162;Laerm;68342;52.598;13.450;2023-11-19T13:21:13;48.39;44.49;63.12;;
37162;Laerm;68342;52.598;13.450;2023-11-19T13:23:38;48.17;43.78;61.44;;
37162;Laerm;68342;52.598;13.450;2023-11-19T13:26:04;50.03;45.56;62.92;;
37162;Laerm;68342;52.598;13.450;2023-11-19T13:28:29;50.54;45.08;60.67;;
37162;Laerm;68342;52.598;13.450;2023-11-19T13:30:54;48.12;44.38;61.42;;
37162;Laerm;68342;52.598;13.450;2023-11-19T13:33:19;48.99;44.05;66.18;;
37162;Laerm;68342;52.598;13.450;2023-11-19T13:35:45;48.37;42.34;65.82;;
37162;Laerm;68342;52.598;13.450;2023-11-19T13:38:10;48.77;44.44;53.93;;
37162;Laerm;68342;52.598;13.450;2023-11-19T13:40:35;49.18;45.06;55.07;;
37162;Laerm;68342;52.598;13.450;2023-11-19T13:43:00;49.09;44.84;57.58;;
37162;Laerm;68342;52.598;13.450;2023-11-19T13:45:26;48.96;44.88;58.96;;
37162;Laerm;68342;52.598;13.450;2023-11-19T13:47:51;48.31;45.03;56.03;;
37162;Laerm;68342;52.598;13.450;2023-11-19T13:50:17;48.78;43.73;55.27;;